Time;durP1;ratioP1;P1;durP2;ratioP2;P2;SDS_P1;SDS_P2;PMS_P1;PMS_P2;Temp;Humidity;BMP_temperature;BMP_pressure;BME280_temperature;BME280_humidity;BME280_pressure;Samples;Min_cycle;Max_cycle;Signal;HPM_P1;HPM_P2
2023/06/03 00:00:53;;;;;;;;;;;15.00;99.90;;;;;;4954350;28;19937;-67
2023/06/03 00:03:27;;;;;;;;;;;15.00;99.90;;;;;;4956117;28;19927;-66
2023/06/03 00:05:59;;;;;;;;;;;15.00;99.90;;;;;;4969453;28;19937;-67
2023/06/03 00:08:31;;;;;;;;;;;14.90;99.90;;;;;;4965296;28;19926;-67
2023/06/03 00:11:03;;;;;;;;;;;14.80;99.90;;;;;;4960916;28;20405;-66
2023/06/03 00:13:35;;;;;;;;;;;14.70;99.90;;;;;;4961602;28;19937;-67
2023/06/03 00:16:07;;;;;;;;;;;14.60;99.90;;;;;;4961690;28;20370;-66
2023/06/03 00:18:34;;;;;;;;;;;14.50;99.90;;;;;;4961057;28;19936;-66
2023/06/03 00:21:01;;;;;;;;;;;14.40;99.90;;;;;;4956723;28;19926;-66
2023/06/03 00:23:33;;;;;;;;;;;14.30;99.90;;;;;;4969952;28;19934;-66
2023/06/03 00:26:05;;;;;;;;;;;14.30;99.90;;;;;;4965113;28;19970;-66
2023/06/03 00:28:37;;;;;;;;;;;14.20;99.90;;;;;;4955400;28;19934;-66
2023/06/03 00:31:09;;;;;;;;;;;14.20;99.90;;;;;;4962863;28;19926;-66
2023/06/03 00:33:41;;;;;;;;;;;14.10;99.90;;;;;;4965480;28;19993;-67
2023/06/03 00:36:08;;;;;;;;;;;14.10;99.90;;;;;;4964937;28;20017;-67
2023/06/03 00:38:40;;;;;;;;;;;14.10;99.90;;;;;;4961957;28;20026;-67
2023/06/03 00:41:07;;;;;;;;;;;14.10;99.90;;;;;;4959674;28;19926;-66
2023/06/03 00:43:34;;;;;;;;;;;14.10;99.90;;;;;;4952706;28;20017;-66
2023/06/03 00:46:06;;;;;;;;;;;14.10;99.90;;;;;;4967634;28;19973;-67
2023/06/03 00:48:38;;;;;;;;;;;14.20;99.90;;;;;;4953928;28;19927;-67
2023/06/03 00:51:10;;;;;;;;;;;14.20;99.90;;;;;;4957604;28;19926;-66
2023/06/03 00:53:42;;;;;;;;;;;14.10;99.90;;;;;;4957822;28;19926;-66
2023/06/03 00:56:18;;;;;;;;;;;14.10;99.90;;;;;;4952138;28;19997;-66
2023/06/03 00:58:49;;;;;;;;;;;14.20;99.90;;;;;;4954502;28;19927;-67
2023/06/03 01:01:24;;;;;;;;;;;14.20;99.90;;;;;;4952839;28;20446;-67
2023/06/03 01:03:56;;;;;;;;;;;14.20;99.90;;;;;;4962373;28;19930;-66
2023/06/03 01:06:35;;;;;;;;;;;14.20;99.90;;;;;;4943068;28;20332;-66
2023/06/03 01:09:10;;;;;;;;;;;14.20;99.90;;;;;;4966610;28;20025;-67
2023/06/03 01:11:47;;;;;;;;;;;14.20;99.90;;;;;;4970195;28;19933;-66
2023/06/03 01:14:22;;;;;;;;;;;14.20;99.90;;;;;;4968901;28;20021;-66
2023/06/03 01:16:55;;;;;;;;;;;14.20;99.90;;;;;;4954640;28;19932;-66
2023/06/03 01:19:48;;;;;;;;;;;14.20;99.90;;;;;;4954719;28;19930;-66
2023/06/03 01:22:21;;;;;;;;;;;14.20;99.90;;;;;;4967860;28;19926;-66
2023/06/03 01:25:06;;;;;;;;;;;14.20;99.90;;;;;;4962079;28;20025;-66
2023/06/03 01:27:40;;;;;;;;;;;14.10;99.90;;;;;;4961199;28;19961;-66
2023/06/03 01:30:17;;;;;;;;;;;14.00;99.90;;;;;;4946642;28;19926;-66
2023/06/03 01:32:44;;;;;;;;;;;14.00;99.90;;;;;;4959810;28;20025;-66
2023/06/03 01:35:17;;;;;;;;;;;14.00;99.90;;;;;;4959215;28;19948;-66
2023/06/03 01:37:50;;;;;;;;;;;14.00;99.90;;;;;;4958541;28;19926;-66
2023/06/03 01:40:23;;;;;;;;;;;14.00;99.90;;;;;;4970437;28;20383;-66
2023/06/03 01:42:55;;;;;;;;;;;14.00;99.90;;;;;;4962993;28;20012;-66
2023/06/03 01:45:26;;;;;;;;;;;14.00;99.90;;;;;;4973740;28;20378;-66
2023/06/03 01:47:59;;;;;;;;;;;14.00;99.90;;;;;;4959791;28;19927;-66
2023/06/03 01:50:31;;;;;;;;;;;13.90;99.90;;;;;;4978007;28;20291;-66
2023/06/03 01:55:39;;;;;;;;;;;13.90;99.90;;;;;;4944855;29;19937;-63
2023/06/03 01:58:11;;;;;;;;;;;13.80;99.90;;;;;;4925063;29;19934;-63
2023/06/03 02:00:43;;;;;;;;;;;13.80;99.90;;;;;;4931812;29;20026;-63
2023/06/03 02:03:15;;;;;;;;;;;13.80;99.90;;;;;;4950974;29;19930;-63
2023/06/03 02:05:47;;;;;;;;;;;13.70;99.90;;;;;;4937962;29;19931;-63
2023/06/03 02:08:15;;;;;;;;;;;13.70;99.90;;;;;;4953343;29;19930;-63
2023/06/03 02:10:46;;;;;;;;;;;13.70;99.90;;;;;;4935154;29;20866;-63
2023/06/03 02:13:13;;;;;;;;;;;13.70;99.90;;;;;;4948127;29;19931;-63
2023/06/03 02:15:45;;;;;;;;;;;13.70;99.90;;;;;;4927842;29;19926;-63
2023/06/03 02:18:17;;;;;;;;;;;13.70;99.90;;;;;;4936027;29;19933;-63
2023/06/03 02:20:49;;;;;;;;;;;13.70;99.90;;;;;;4945767;28;19927;-63
2023/06/03 02:23:16;;;;;;;;;;;13.70;99.90;;;;;;4948763;29;19937;-63
2023/06/03 02:25:48;;;;;;;;;;;13.70;99.90;;;;;;4937008;29;19933;-63
2023/06/03 02:28:22;;;;;;;;;;;13.70;99.90;;;;;;4943659;29;19927;-63
2023/06/03 02:30:54;;;;;;;;;;;13.70;99.90;;;;;;4930828;29;19937;-63
2023/06/03 02:33:26;;;;;;;;;;;13.60;99.90;;;;;;4937037;29;19927;-63
2023/06/03 02:35:58;;;;;;;;;;;13.60;99.90;;;;;;4934947;29;19974;-63
2023/06/03 02:38:29;;;;;;;;;;;13.50;99.90;;;;;;4936174;29;19970;-63
2023/06/03 02:41:02;;;;;;;;;;;13.40;99.90;;;;;;4935336;29;20066;-63
2023/06/03 02:43:34;;;;;;;;;;;13.40;99.90;;;;;;4919561;29;20041;-63
2023/06/03 02:46:01;;;;;;;;;;;13.30;99.90;;;;;;4935237;29;19966;-63
2023/06/03 02:48:34;;;;;;;;;;;13.30;99.90;;;;;;4908990;29;19935;-63
2023/06/03 02:51:05;;;;;;;;;;;13.30;99.90;;;;;;4930550;29;19927;-63
2023/06/03 02:53:37;;;;;;;;;;;13.30;99.90;;;;;;4952530;29;20306;-63
2023/06/03 02:56:09;;;;;;;;;;;13.30;99.90;;;;;;4950295;29;19941;-63
2023/06/03 02:58:41;;;;;;;;;;;13.20;99.90;;;;;;4934784;29;19938;-63
2023/06/03 03:01:13;;;;;;;;;;;13.20;99.90;;;;;;4927900;29;19927;-63
2023/06/03 03:03:44;;;;;;;;;;;13.10;99.90;;;;;;4936161;29;19930;-63
2023/06/03 03:06:19;;;;;;;;;;;13.10;99.90;;;;;;4941814;29;19927;-63
2023/06/03 03:08:52;;;;;;;;;;;13.10;99.90;;;;;;4927041;29;19978;-63
2023/06/03 03:11:29;;;;;;;;;;;13.10;99.90;;;;;;4927965;29;19933;-63
2023/06/03 03:13:58;;;;;;;;;;;13.10;99.90;;;;;;4922028;29;19931;-63
2023/06/03 03:16:31;;;;;;;;;;;13.10;99.90;;;;;;4922959;29;20017;-63
2023/06/03 03:19:03;;;;;;;;;;;13.00;99.90;;;;;;4933295;29;19933;-63
2023/06/03 03:21:37;;;;;;;;;;;13.00;99.90;;;;;;4922163;29;20005;-63
2023/06/03 03:24:13;;;;;;;;;;;13.00;99.90;;;;;;4937031;29;20418;-63
2023/06/03 03:26:42;;;;;;;;;;;13.10;99.90;;;;;;4934053;29;19931;-63
2023/06/03 03:29:14;;;;;;;;;;;13.10;99.90;;;;;;4929647;29;20358;-63
2023/06/03 03:31:46;;;;;;;;;;;13.10;99.90;;;;;;4918170;29;19930;-63
2023/06/03 03:34:18;;;;;;;;;;;13.10;99.90;;;;;;4927023;29;19930;-63
2023/06/03 03:36:51;;;;;;;;;;;13.10;99.90;;;;;;4919323;29;19927;-63
2023/06/03 03:39:23;;;;;;;;;;;13.00;99.90;;;;;;4927299;29;19931;-63
2023/06/03 03:41:55;;;;;;;;;;;13.00;99.90;;;;;;4920787;29;20307;-63
2023/06/03 03:44:28;;;;;;;;;;;12.90;99.90;;;;;;4947958;29;19927;-63
2023/06/03 03:47:01;;;;;;;;;;;12.90;99.90;;;;;;4936247;29;20017;-63
2023/06/03 03:49:35;;;;;;;;;;;12.80;99.90;;;;;;4935921;29;19930;-63
2023/06/03 03:52:13;;;;;;;;;;;12.80;99.90;;;;;;4932614;29;20299;-63
2023/06/03 03:54:45;;;;;;;;;;;12.70;99.90;;;;;;4924540;29;19981;-63
2023/06/03 03:57:19;;;;;;;;;;;12.70;99.90;;;;;;4926900;29;19983;-63
2023/06/03 03:59:52;;;;;;;;;;;12.60;99.90;;;;;;4926185;29;19942;-63
2023/06/03 04:02:24;;;;;;;;;;;12.60;99.90;;;;;;4929805;29;19962;-64
2023/06/03 04:04:58;;;;;;;;;;;12.50;99.90;;;;;;4934078;29;19987;-63
2023/06/03 04:07:33;;;;;;;;;;;12.50;99.90;;;;;;4931905;29;20014;-63
2023/06/03 04:10:08;;;;;;;;;;;12.50;99.90;;;;;;4952828;29;19973;-63
2023/06/03 04:12:38;;;;;;;;;;;12.50;99.90;;;;;;4952283;29;19993;-63
2023/06/03 04:15:12;;;;;;;;;;;12.60;99.90;;;;;;4925379;29;19926;-63
2023/06/03 04:17:44;;;;;;;;;;;12.60;99.90;;;;;;4933252;29;19927;-63
2023/06/03 04:20:32;;;;;;;;;;;12.60;99.90;;;;;;4923249;29;19938;-63
2023/06/03 04:23:05;;;;;;;;;;;12.70;99.90;;;;;;4927612;29;19930;-63
2023/06/03 04:25:36;;;;;;;;;;;12.70;99.90;;;;;;4933010;28;19973;-63
2023/06/03 04:28:10;;;;;;;;;;;12.80;99.90;;;;;;4929829;29;20368;-63
2023/06/03 04:30:43;;;;;;;;;;;12.80;99.90;;;;;;4943608;28;20303;-63
2023/06/03 04:33:16;;;;;;;;;;;12.80;99.90;;;;;;4925612;29;19930;-63
2023/06/03 04:35:42;;;;;;;;;;;12.80;99.90;;;;;;4937026;28;19927;-63
2023/06/03 04:38:09;;;;;;;;;;;12.90;99.90;;;;;;4933238;29;19927;-63
2023/06/03 04:40:45;;;;;;;;;;;12.90;99.90;;;;;;4936112;28;19927;-63
2023/06/03 04:43:18;;;;;;;;;;;12.90;99.90;;;;;;4934352;29;19926;-66
2023/06/03 04:45:51;;;;;;;;;;;12.90;99.90;;;;;;4923456;29;19930;-64
2023/06/03 04:48:19;;;;;;;;;;;12.90;99.90;;;;;;4944046;28;20395;-64
2023/06/03 04:50:50;;;;;;;;;;;13.00;99.90;;;;;;4929671;29;19931;-64
2023/06/03 04:53:25;;;;;;;;;;;13.00;99.90;;;;;;4933181;29;19931;-64
2023/06/03 04:55:53;;;;;;;;;;;13.00;99.90;;;;;;4925887;29;19927;-64
2023/06/03 04:58:22;;;;;;;;;;;13.00;99.90;;;;;;4922451;29;20263;-64
2023/06/03 05:00:50;;;;;;;;;;;13.00;99.90;;;;;;4923226;29;19926;-64
2023/06/03 05:03:23;;;;;;;;;;;13.10;99.90;;;;;;4932744;29;19946;-64
2023/06/03 05:05:57;;;;;;;;;;;13.10;99.90;;;;;;4935759;29;19982;-64
2023/06/03 05:08:29;;;;;;;;;;;13.20;99.90;;;;;;4930866;29;19949;-64
2023/06/03 05:11:02;;;;;;;;;;;13.20;99.90;;;;;;4933619;29;20025;-64
2023/06/03 05:13:34;;;;;;;;;;;13.20;99.90;;;;;;4931150;29;20319;-64
2023/06/03 05:16:06;;;;;;;;;;;13.20;99.90;;;;;;4925583;29;20365;-64
2023/06/03 05:18:33;;;;;;;;;;;13.30;99.90;;;;;;4949537;28;19958;-64
2023/06/03 05:21:05;;;;;;;;;;;13.30;99.90;;;;;;4933898;29;19934;-64
2023/06/03 05:23:37;;;;;;;;;;;13.30;99.90;;;;;;4931073;28;19934;-64
2023/06/03 05:26:05;;;;;;;;;;;13.30;99.90;;;;;;4925078;29;20395;-64
2023/06/03 05:28:37;;;;;;;;;;;13.30;99.90;;;;;;4925515;29;19986;-64
2023/06/03 05:31:11;;;;;;;;;;;13.40;99.90;;;;;;4943451;29;19930;-64
2023/06/03 05:33:43;;;;;;;;;;;13.50;99.90;;;;;;4938022;29;19946;-64
2023/06/03 05:36:19;;;;;;;;;;;13.50;99.90;;;;;;4935856;29;19981;-64
2023/06/03 05:38:52;;;;;;;;;;;13.60;99.90;;;;;;4946298;29;19981;-64
2023/06/03 05:41:24;;;;;;;;;;;13.60;99.90;;;;;;4928769;29;19986;-64
2023/06/03 05:43:56;;;;;;;;;;;13.70;99.90;;;;;;4924561;29;20370;-64
2023/06/03 05:46:29;;;;;;;;;;;13.70;99.90;;;;;;4920058;28;19977;-62
2023/06/03 05:49:00;;;;;;;;;;;13.80;99.90;;;;;;4908785;29;20025;-64
2023/06/03 05:51:32;;;;;;;;;;;13.90;99.90;;;;;;4937339;28;19958;-64
2023/06/03 05:53:59;;;;;;;;;;;13.90;99.90;;;;;;4905943;29;19931;-64
2023/06/03 05:56:27;;;;;;;;;;;13.90;99.90;;;;;;4937670;29;19926;-64
2023/06/03 05:58:58;;;;;;;;;;;14.00;99.90;;;;;;4928450;29;20295;-64
2023/06/03 06:01:35;;;;;;;;;;;14.00;99.90;;;;;;4929341;29;19927;-64
2023/06/03 06:04:08;;;;;;;;;;;14.10;99.90;;;;;;4919425;29;19930;-64
2023/06/03 06:06:40;;;;;;;;;;;14.20;99.90;;;;;;4926527;29;19931;-64
2023/06/03 06:09:12;;;;;;;;;;;14.30;99.90;;;;;;4925391;29;19965;-64
2023/06/03 06:11:42;;;;;;;;;;;14.40;99.90;;;;;;4924906;29;19965;-64
2023/06/03 06:14:14;;;;;;;;;;;14.40;99.90;;;;;;4939161;29;20399;-64
2023/06/03 06:16:41;;;;;;;;;;;14.50;99.90;;;;;;4927224;29;19926;-64
2023/06/03 06:19:13;;;;;;;;;;;14.60;99.90;;;;;;4936893;29;19933;-64
2023/06/03 06:21:46;;;;;;;;;;;14.60;99.90;;;;;;4936996;29;19927;-64
2023/06/03 06:24:17;;;;;;;;;;;14.70;99.90;;;;;;4932579;29;19927;-63
2023/06/03 06:26:50;;;;;;;;;;;14.80;99.90;;;;;;4936610;28;19934;-64
2023/06/03 06:29:22;;;;;;;;;;;14.80;99.90;;;;;;4929643;29;19927;-64
2023/06/03 06:31:53;;;;;;;;;;;14.80;99.90;;;;;;4941179;28;19927;-64
2023/06/03 06:34:31;;;;;;;;;;;15.00;99.90;;;;;;4930117;29;19937;-64
2023/06/03 06:37:03;;;;;;;;;;;15.10;99.90;;;;;;4923911;29;20013;-64
2023/06/03 06:39:47;;;;;;;;;;;15.20;99.90;;;;;;4927650;29;20033;-63
2023/06/03 06:42:19;;;;;;;;;;;15.30;99.90;;;;;;4928322;29;20009;-64
2023/06/03 06:44:54;;;;;;;;;;;15.40;99.90;;;;;;4928582;29;20587;-64
2023/06/03 06:47:25;;;;;;;;;;;15.40;99.90;;;;;;4939003;29;19934;-64
2023/06/03 06:49:57;;;;;;;;;;;15.50;99.90;;;;;;4930524;28;19930;-64
2023/06/03 06:52:30;;;;;;;;;;;15.60;99.90;;;;;;4935709;29;20378;-64
2023/06/03 06:55:04;;;;;;;;;;;15.70;99.90;;;;;;4930190;29;19931;-64
2023/06/03 06:57:37;;;;;;;;;;;15.70;99.90;;;;;;4932083;29;19969;-64
2023/06/03 07:00:08;;;;;;;;;;;15.80;99.90;;;;;;4951379;29;20013;-64
2023/06/03 07:02:37;;;;;;;;;;;16.00;99.90;;;;;;4935612;29;20083;-64
2023/06/03 07:05:09;;;;;;;;;;;16.10;99.90;;;;;;4944138;29;20389;-64
2023/06/03 07:07:41;;;;;;;;;;;16.20;99.90;;;;;;4919226;29;19934;-64
2023/06/03 07:10:08;;;;;;;;;;;16.20;99.90;;;;;;4933504;29;20040;-64
2023/06/03 07:12:40;;;;;;;;;;;16.30;99.90;;;;;;4935553;29;19926;-64
2023/06/03 07:15:12;;;;;;;;;;;16.40;99.90;;;;;;4932344;28;19935;-64
2023/06/03 07:17:40;;;;;;;;;;;16.50;99.90;;;;;;4934034;29;20021;-64
2023/06/03 07:20:17;;;;;;;;;;;16.50;99.90;;;;;;4936040;29;19933;-65
2023/06/03 07:22:50;;;;;;;;;;;16.60;99.90;;;;;;4934017;28;19938;-64
2023/06/03 07:25:22;;;;;;;;;;;16.70;99.90;;;;;;4935926;28;19937;-64
2023/06/03 07:27:53;;;;;;;;;;;16.80;99.90;;;;;;4936928;29;19970;-64
2023/06/03 07:30:25;;;;;;;;;;;16.90;99.90;;;;;;4924949;28;20027;-64
2023/06/03 07:32:58;;;;;;;;;;;17.00;99.90;;;;;;4916522;29;19926;-64
2023/06/03 07:35:30;;;;;;;;;;;17.10;99.90;;;;;;4926758;29;19931;-64
2023/06/03 07:37:58;;;;;;;;;;;17.20;99.90;;;;;;4931813;29;19930;-64
2023/06/03 07:40:42;;;;;;;;;;;17.20;99.90;;;;;;4928359;29;20026;-63
2023/06/03 07:43:14;;;;;;;;;;;17.30;99.90;;;;;;4929792;29;19954;-64
2023/06/03 07:45:41;;;;;;;;;;;17.40;99.90;;;;;;4935831;29;19930;-64
2023/06/03 07:48:14;;;;;;;;;;;17.50;99.90;;;;;;4945450;29;19926;-64
2023/06/03 07:50:47;;;;;;;;;;;17.60;99.90;;;;;;4945197;28;19935;-64
2023/06/03 07:53:22;;;;;;;;;;;17.70;99.90;;;;;;4944806;29;19994;-64
2023/06/03 07:55:50;;;;;;;;;;;17.80;99.90;;;;;;4925897;29;20058;-64
2023/06/03 07:58:22;;;;;;;;;;;17.90;99.90;;;;;;4942783;29;19966;-64
2023/06/03 08:00:54;;;;;;;;;;;17.90;99.90;;;;;;4943885;29;20418;-64
2023/06/03 08:03:26;;;;;;;;;;;18.00;99.90;;;;;;4945267;29;20021;-64
2023/06/03 08:05:58;;;;;;;;;;;18.10;99.90;;;;;;4928663;29;19937;-64
2023/06/03 08:08:33;;;;;;;;;;;18.30;99.90;;;;;;4949301;29;19926;-64
2023/06/03 08:11:01;;;;;;;;;;;18.40;99.90;;;;;;4947549;29;19994;-64
2023/06/03 08:13:33;;;;;;;;;;;18.60;99.90;;;;;;4950711;28;19942;-64
2023/06/03 08:16:05;;;;;;;;;;;18.60;99.90;;;;;;4925951;29;20021;-64
2023/06/03 08:18:42;;;;;;;;;;;18.70;99.90;;;;;;4944278;29;20396;-64
2023/06/03 08:21:14;;;;;;;;;;;18.80;99.90;;;;;;4939399;29;19931;-64
2023/06/03 08:23:46;;;;;;;;;;;18.90;99.90;;;;;;4933686;29;20307;-64
2023/06/03 08:26:17;;;;;;;;;;;19.00;99.90;;;;;;4930930;29;19930;-64
2023/06/03 08:28:49;;;;;;;;;;;19.00;99.90;;;;;;4942121;28;19934;-64
2023/06/03 08:31:21;;;;;;;;;;;19.00;99.90;;;;;;4947978;28;20001;-64
2023/06/03 08:33:53;;;;;;;;;;;19.10;99.90;;;;;;4931079;29;19927;-64
2023/06/03 08:36:25;;;;;;;;;;;19.20;99.90;;;;;;4934376;28;20033;-63
2023/06/03 08:38:57;;;;;;;;;;;19.30;99.90;;;;;;4948050;28;19965;-64
2023/06/03 08:41:35;;;;;;;;;;;19.40;99.90;;;;;;4941196;28;19934;-64
2023/06/03 08:44:34;;;;;;;;;;;19.50;99.90;;;;;;4924638;29;19927;-64
2023/06/03 08:47:13;;;;;;;;;;;19.50;99.90;;;;;;4937579;29;20426;-64
2023/06/03 08:49:45;;;;;;;;;;;19.70;99.90;;;;;;4930717;29;20045;-64
2023/06/03 08:52:19;;;;;;;;;;;19.80;99.90;;;;;;4928494;29;20347;-64
2023/06/03 08:54:55;;;;;;;;;;;20.00;99.90;;;;;;4946565;29;19930;-64
2023/06/03 08:57:34;;;;;;;;;;;20.10;99.90;;;;;;4950298;29;19982;-64
2023/06/03 09:00:01;;;;;;;;;;;20.20;99.90;;;;;;4930469;29;19976;-64
2023/06/03 09:02:29;;;;;;;;;;;20.30;99.90;;;;;;4929701;29;20304;-64
2023/06/03 09:05:01;;;;;;;;;;;20.40;99.90;;;;;;4944707;29;19930;-64
2023/06/03 09:07:34;;;;;;;;;;;20.50;99.90;;;;;;4942870;29;19930;-64
2023/06/03 09:10:07;;;;;;;;;;;20.60;99.90;;;;;;4946047;29;19927;-64
2023/06/03 09:12:39;;;;;;;;;;;20.60;99.90;;;;;;4926245;29;20030;-64
2023/06/03 09:15:07;;;;;;;;;;;20.70;99.90;;;;;;4949784;29;20003;-64
2023/06/03 09:17:39;;;;;;;;;;;20.80;99.90;;;;;;4927945;29;19927;-64
2023/06/03 09:20:06;;;;;;;;;;;20.90;99.90;;;;;;4948442;29;19973;-64
2023/06/03 09:22:38;;;;;;;;;;;21.00;99.90;;;;;;4949200;29;19933;-64
2023/06/03 09:25:10;;;;;;;;;;;21.10;99.90;;;;;;4947747;29;20029;-64
2023/06/03 09:27:42;;;;;;;;;;;21.20;99.90;;;;;;4947139;29;19931;-64
2023/06/03 09:30:14;;;;;;;;;;;21.40;99.90;;;;;;4927812;29;19926;-64
2023/06/03 09:32:46;;;;;;;;;;;21.50;99.90;;;;;;4942170;29;19926;-64
2023/06/03 09:35:19;;;;;;;;;;;21.60;99.90;;;;;;4942488;29;19931;-64
2023/06/03 09:37:58;;;;;;;;;;;21.60;99.90;;;;;;4941680;29;19939;-64
2023/06/03 09:40:30;;;;;;;;;;;21.70;99.90;;;;;;4941987;29;20417;-62
2023/06/03 09:43:09;;;;;;;;;;;21.80;99.90;;;;;;4954559;28;19933;-64
2023/06/03 09:45:40;;;;;;;;;;;21.80;99.90;;;;;;4950788;28;19930;-64
2023/06/03 09:48:12;;;;;;;;;;;22.00;99.90;;;;;;4957830;28;19930;-64
2023/06/03 09:50:47;;;;;;;;;;;22.00;99.90;;;;;;4949774;28;19926;-64
2023/06/03 09:53:18;;;;;;;;;;;22.00;99.90;;;;;;4952473;28;19993;-64
2023/06/03 09:55:50;;;;;;;;;;;22.20;99.90;;;;;;4922468;29;19942;-64
2023/06/03 09:58:22;;;;;;;;;;;22.30;99.90;;;;;;4940612;29;20026;-64
2023/06/03 10:00:56;;;;;;;;;;;22.30;99.90;;;;;;4939196;29;19931;-64
2023/06/03 10:03:28;;;;;;;;;;;22.40;99.90;;;;;;4926176;29;20360;-64
2023/06/03 10:06:16;;;;;;;;;;;22.50;99.90;;;;;;4927892;29;19933;-64
2023/06/03 10:08:42;;;;;;;;;;;22.60;99.90;;;;;;4942129;29;19927;-64
2023/06/03 10:11:09;;;;;;;;;;;22.70;99.90;;;;;;4923019;29;20010;-64
2023/06/03 10:13:41;;;;;;;;;;;22.70;99.90;;;;;;4911515;29;20014;-64
2023/06/03 10:16:13;;;;;;;;;;;22.90;99.90;;;;;;4926992;29;20340;-64
2023/06/03 10:18:45;;;;;;;;;;;22.90;99.90;;;;;;4907603;29;19927;-64
2023/06/03 10:21:17;;;;;;;;;;;23.00;99.90;;;;;;4909839;29;19934;-64
2023/06/03 10:23:48;;;;;;;;;;;23.10;99.90;;;;;;4929465;29;19934;-64
2023/06/03 10:26:16;;;;;;;;;;;23.20;99.90;;;;;;4919117;29;19975;-64
2023/06/03 10:28:46;;;;;;;;;;;23.30;99.90;;;;;;4926667;29;19934;-64
2023/06/03 10:31:20;;;;;;;;;;;23.50;99.90;;;;;;4931898;29;19934;-65
2023/06/03 10:33:52;;;;;;;;;;;23.50;99.50;;;;;;4917949;29;19927;-64
2023/06/03 10:36:20;;;;;;;;;;;23.70;99.90;;;;;;4927572;29;20059;-64
2023/06/03 10:38:51;;;;;;;;;;;23.80;99.90;;;;;;4928912;29;19927;-64
2023/06/03 10:41:23;;;;;;;;;;;24.00;99.10;;;;;;4923401;29;19930;-64
2023/06/03 10:43:55;;;;;;;;;;;23.90;98.10;;;;;;4903391;29;20021;-64
2023/06/03 10:46:27;;;;;;;;;;;23.70;98.30;;;;;;4924218;29;19931;-64
2023/06/03 10:49:01;;;;;;;;;;;23.50;98.20;;;;;;4917904;29;19931;-64
2023/06/03 10:51:56;;;;;;;;;;;23.60;97.90;;;;;;4930863;29;20657;-64
2023/06/03 10:54:41;;;;;;;;;;;23.60;98.10;;;;;;4898787;28;19938;-64
2023/06/03 10:57:14;;;;;;;;;;;23.80;97.80;;;;;;4949232;28;19927;-64
2023/06/03 10:59:46;;;;;;;;;;;24.10;97.90;;;;;;4930183;29;19933;-64
2023/06/03 11:02:18;;;;;;;;;;;24.20;96.70;;;;;;4944618;29;19931;-64
2023/06/03 11:04:45;;;;;;;;;;;24.30;97.20;;;;;;4928226;28;19970;-64
2023/06/03 11:07:33;;;;;;;;;;;24.20;95.80;;;;;;4948100;28;20358;-64
2023/06/03 11:10:24;;;;;;;;;;;24.30;96.60;;;;;;4926090;29;19930;-64
2023/06/03 11:12:56;;;;;;;;;;;24.40;96.40;;;;;;4950120;29;19974;-64
2023/06/03 11:15:46;;;;;;;;;;;24.50;96.30;;;;;;4947349;28;19927;-64
2023/06/03 11:18:18;;;;;;;;;;;24.60;95.50;;;;;;4944208;29;20314;-64
2023/06/03 11:20:45;;;;;;;;;;;24.60;94.60;;;;;;4947970;28;20415;-64
2023/06/03 11:23:31;;;;;;;;;;;24.60;93.80;;;;;;4948914;28;19926;-64
2023/06/03 11:26:22;;;;;;;;;;;24.60;94.50;;;;;;4933436;29;19937;-65
2023/06/03 11:28:54;;;;;;;;;;;24.70;94.20;;;;;;4945909;28;19927;-64
2023/06/03 11:31:27;;;;;;;;;;;24.80;93.50;;;;;;4929681;29;19930;-64
2023/06/03 11:34:18;;;;;;;;;;;24.80;93.00;;;;;;4914086;29;19933;-65
2023/06/03 11:36:54;;;;;;;;;;;25.00;93.70;;;;;;4949446;28;19937;-64
2023/06/03 11:39:25;;;;;;;;;;;25.10;93.30;;;;;;4941632;28;19930;-64
2023/06/03 11:42:00;;;;;;;;;;;25.20;93.00;;;;;;4944118;28;19953;-64
2023/06/03 11:44:33;;;;;;;;;;;25.30;92.00;;;;;;4949300;28;19926;-64
2023/06/03 11:47:05;;;;;;;;;;;25.40;91.70;;;;;;4928719;29;19937;-64
2023/06/03 11:49:38;;;;;;;;;;;25.50;91.00;;;;;;4946800;28;19931;-64
2023/06/03 11:52:10;;;;;;;;;;;25.60;92.30;;;;;;4946222;28;19933;-64
2023/06/03 11:54:46;;;;;;;;;;;25.70;91.20;;;;;;4956580;28;19930;-64
2023/06/03 11:57:18;;;;;;;;;;;25.80;89.00;;;;;;4949103;29;19934;-64
2023/06/03 11:59:51;;;;;;;;;;;25.90;90.10;;;;;;4947461;29;20034;-64
2023/06/03 12:02:23;;;;;;;;;;;25.90;86.50;;;;;;4941684;29;19926;-65
2023/06/03 12:05:02;;;;;;;;;;;25.90;85.00;;;;;;4946043;28;19926;-64
2023/06/03 12:07:34;;;;;;;;;;;25.90;85.20;;;;;;4948196;28;19941;-64
2023/06/03 12:10:06;;;;;;;;;;;26.00;86.90;;;;;;4930477;28;20382;-64
2023/06/03 12:12:54;;;;;;;;;;;25.90;87.40;;;;;;4947616;28;20388;-65
2023/06/03 12:15:26;;;;;;;;;;;25.90;84.80;;;;;;4929344;29;19934;-65
2023/06/03 12:18:02;;;;;;;;;;;26.00;85.40;;;;;;4933509;28;20314;-65
2023/06/03 12:20:34;;;;;;;;;;;26.10;83.90;;;;;;4950465;28;19990;-66
2023/06/03 12:23:06;;;;;;;;;;;26.30;86.00;;;;;;4934837;29;19931;-67
2023/06/03 12:25:33;;;;;;;;;;;26.40;84.80;;;;;;4942617;28;19927;-68
2023/06/03 12:28:19;;;;;;;;;;;26.60;82.50;;;;;;4946905;28;20469;-65
2023/06/03 12:30:51;;;;;;;;;;;26.60;80.10;;;;;;4941761;29;19934;-66
2023/06/03 12:33:18;;;;;;;;;;;26.60;81.50;;;;;;4924126;29;20375;-66
2023/06/03 12:35:54;;;;;;;;;;;26.60;79.90;;;;;;4945512;28;19933;-66
2023/06/03 12:38:26;;;;;;;;;;;26.70;78.70;;;;;;4934476;29;19927;-66
2023/06/03 12:41:10;;;;;;;;;;;26.80;81.00;;;;;;4926226;29;19933;-67
2023/06/03 12:43:42;;;;;;;;;;;26.80;80.40;;;;;;4946861;29;19926;-64
2023/06/03 12:46:17;;;;;;;;;;;26.90;81.60;;;;;;4946880;28;19926;-64
2023/06/03 12:48:49;;;;;;;;;;;26.80;79.40;;;;;;4944887;29;19926;-64
2023/06/03 12:51:28;;;;;;;;;;;27.10;82.60;;;;;;4951404;28;20395;-64
2023/06/03 12:54:00;;;;;;;;;;;27.20;79.60;;;;;;4940760;29;20299;-65
2023/06/03 12:56:33;;;;;;;;;;;27.00;78.70;;;;;;4950937;28;19958;-64
2023/06/03 12:59:05;;;;;;;;;;;26.90;79.90;;;;;;4941584;28;19926;-65
2023/06/03 13:01:37;;;;;;;;;;;27.10;78.40;;;;;;4943939;29;19932;-65
2023/06/03 13:04:09;;;;;;;;;;;27.40;79.80;;;;;;4937227;28;19930;-65
2023/06/03 13:06:42;;;;;;;;;;;27.60;77.40;;;;;;4931598;29;19937;-65
2023/06/03 13:09:13;;;;;;;;;;;27.80;79.20;;;;;;4945019;29;20515;-65
2023/06/03 13:11:45;;;;;;;;;;;27.70;76.80;;;;;;4928566;29;19977;-64
2023/06/03 13:14:12;;;;;;;;;;;27.30;75.40;;;;;;4944134;29;19933;-64
2023/06/03 13:16:44;;;;;;;;;;;27.30;76.80;;;;;;4941988;28;19933;-64
2023/06/03 13:19:10;;;;;;;;;;;27.40;78.00;;;;;;4944882;28;19937;-61
2023/06/03 13:21:42;;;;;;;;;;;27.40;74.20;;;;;;4940572;29;20018;-64
2023/06/03 13:24:09;;;;;;;;;;;27.20;75.20;;;;;;4939802;29;19930;-64
2023/06/03 13:26:41;;;;;;;;;;;26.90;78.00;;;;;;4950502;28;19930;-68
2023/06/03 13:29:13;;;;;;;;;;;26.70;77.30;;;;;;4949086;28;19927;-68
2023/06/03 13:31:45;;;;;;;;;;;26.70;76.80;;;;;;4954277;28;19952;-68
2023/06/03 13:34:17;;;;;;;;;;;27.00;77.30;;;;;;4951665;28;19926;-66
2023/06/03 13:36:49;;;;;;;;;;;27.10;76.80;;;;;;4947362;28;19927;-65
2023/06/03 13:39:24;;;;;;;;;;;27.40;77.10;;;;;;4943618;29;19930;-65
2023/06/03 13:41:56;;;;;;;;;;;27.30;75.00;;;;;;4935828;29;19926;-64
2023/06/03 13:44:30;;;;;;;;;;;27.00;75.00;;;;;;4950007;28;20323;-64
2023/06/03 13:47:03;;;;;;;;;;;27.00;73.70;;;;;;4947324;28;19938;-64
2023/06/03 13:49:30;;;;;;;;;;;27.20;74.30;;;;;;4934404;29;19934;-65
2023/06/03 13:52:03;;;;;;;;;;;27.50;73.30;;;;;;4932672;29;20387;-65
2023/06/03 13:54:35;;;;;;;;;;;27.90;74.10;;;;;;4937806;28;20020;-64
2023/06/03 13:57:08;;;;;;;;;;;28.20;72.30;;;;;;4948600;28;19926;-65
2023/06/03 13:59:40;;;;;;;;;;;28.10;71.60;;;;;;4947900;28;19937;-65
2023/06/03 14:02:12;;;;;;;;;;;27.90;72.20;;;;;;4930597;29;19985;-65
2023/06/03 14:04:44;;;;;;;;;;;27.40;71.90;;;;;;4935767;28;19926;-65
2023/06/03 14:07:16;;;;;;;;;;;26.90;71.70;;;;;;4923506;28;19930;-65
2023/06/03 14:09:48;;;;;;;;;;;26.60;73.80;;;;;;4941684;28;20391;-65
2023/06/03 14:12:20;;;;;;;;;;;26.30;73.60;;;;;;4927669;29;19931;-65
2023/06/03 14:14:52;;;;;;;;;;;26.20;74.00;;;;;;4928320;28;20028;-65
2023/06/03 14:17:23;;;;;;;;;;;26.50;74.70;;;;;;4954728;28;19926;-65
2023/06/03 14:19:55;;;;;;;;;;;26.90;71.80;;;;;;4936506;28;20045;-65
2023/06/03 14:22:29;;;;;;;;;;;27.10;70.90;;;;;;4950297;28;20415;-65
2023/06/03 14:24:56;;;;;;;;;;;27.40;71.30;;;;;;4914339;29;20394;-65
2023/06/03 14:27:28;;;;;;;;;;;27.90;74.20;;;;;;4951006;28;19932;-65
2023/06/03 14:29:59;;;;;;;;;;;28.40;71.90;;;;;;4941126;28;20440;-65
2023/06/03 14:32:34;;;;;;;;;;;28.40;72.70;;;;;;4933581;22;19941;31
2023/06/03 14:35:07;;;;;;;;;;;28.30;69.30;;;;;;4926709;29;20486;-65
2023/06/03 14:37:39;;;;;;;;;;;27.70;70.20;;;;;;4922395;29;19933;-67
2023/06/03 14:40:06;;;;;;;;;;;27.60;71.00;;;;;;4928941;28;20053;-65
2023/06/03 14:42:39;;;;;;;;;;;28.00;69.40;;;;;;4928218;29;19937;-64
2023/06/03 14:45:06;;;;;;;;;;;28.40;67.80;;;;;;4928891;29;19927;-67
2023/06/03 14:47:37;;;;;;;;;;;28.40;66.70;;;;;;4927695;29;20427;-67
2023/06/03 14:50:09;;;;;;;;;;;28.00;67.30;;;;;;4924786;29;19926;-67